This is the latest recevied weather packets stored in our database for station/object JF2ZGN-13. If no packets are shown the sender has not sent any weather packets the latest 10 day(s).
| Time | Temp. | Humidity | Pressure | Rain* | Wind** | Luminosity | Snow |
|---|---|---|---|---|---|---|---|
| 1777788867 | 15.56° C | 51% | 903.5 hPa | 0 mm | - | - | - |
| 1777788267 | 15.56° C | 49% | 903.5 hPa | 0 mm | - | - | - |
| 1777787668 | 15.56° C | 49% | 903.6 hPa | 0 mm | - | - | - |
| 1777787066 | 15.56° C | 40% | 903.9 hPa | 0 mm | - | - | - |
| 1777786465 | 15.56° C | 52% | 904.1 hPa | 0 mm | - | - | - |
| 1777785865 | 14.44° C | 50% | 904.1 hPa | 0 mm | - | - | - |
| 1777785265 | 15° C | 49% | 904.3 hPa | 0 mm | - | - | - |
| 1777784665 | 15.56° C | 47% | 904.5 hPa | 0 mm | - | - | - |
| 1777784064 | 15° C | 57% | 904.8 hPa | 0 mm | - | - | - |
| 1777783463 | 14.44° C | 60% | 904.5 hPa | 0 mm | - | - | - |
| 1777782863 | 15.56° C | 49% | 904.7 hPa | 0 mm | - | - | - |
| 1777782262 | 16.11° C | 48% | 905.1 hPa | 0 mm | - | - | - |
| 1777781663 | 16.67° C | 43% | 905.2 hPa | 0 mm | - | - | - |
| 1777781061 | 16.11° C | 48% | 905.4 hPa | 0 mm | - | - | - |
| 1777780462 | 17.22° C | 46% | 905.6 hPa | 0 mm | - | - | - |
| 1777779860 | 18.33° C | 47% | 905.7 hPa | 0 mm | - | - | - |
| 1777779259 | 18.89° C | 40% | 905.9 hPa | 0 mm | - | - | - |
| 1777778658 | 18.33° C | 42% | 905.9 hPa | 0 mm | - | - | - |
| 1777778057 | 17.78° C | 46% | 906 hPa | 0 mm | - | - | - |
| 1777777458 | 18.33° C | 41% | 906.2 hPa | 0 mm | - | - | - |
| 1777776856 | 18.33° C | 37% | 906.2 hPa | 0 mm | - | - | - |
| 1777776256 | 17.78° C | 44% | 906.4 hPa | 0 mm | - | - | - |
| 1777775656 | 18.33° C | 40% | 906.3 hPa | 0 mm | - | - | - |
| 1777775055 | 17.22° C | 42% | 906.5 hPa | 0 mm | - | - | - |
| 1777774455 | 17.22° C | 51% | 906.5 hPa | 0 mm | - | - | - |
* Rain since midnight (hover to see other rain measurements)
** Current wind speed in m/s (hover to see current wind gust speed)